sensor_id;sensor_type;location;lat;lon;timestamp;pressure;altitude;pressure_sealevel;temperature;humidity
63663;BME280;49815;51.618;0.336;2022-09-02T00:00:31;100957.12;;;19.25;44.36
63663;BME280;49815;51.618;0.336;2022-09-02T00:02:57;100959.08;;;19.52;43.95
63663;BME280;49815;51.618;0.336;2022-09-02T00:05:22;100959.09;;;19.51;43.74
63663;BME280;49815;51.618;0.336;2022-09-02T00:07:48;100956.54;;;19.41;44.14
63663;BME280;49815;51.618;0.336;2022-09-02T00:10:13;100953.17;;;19.34;44.36
63663;BME280;49815;51.618;0.336;2022-09-02T00:12:38;100953.94;;;18.20;46.10
63663;BME280;49815;51.618;0.336;2022-09-02T00:15:04;100953.53;;;18.48;45.54
63663;BME280;49815;51.618;0.336;2022-09-02T00:17:29;100948.46;;;18.38;46.51
63663;BME280;49815;51.618;0.336;2022-09-02T00:19:54;100950.27;;;16.81;49.56
63663;BME280;49815;51.618;0.336;2022-09-02T00:22:19;100950.66;;;17.26;48.95
63663;BME280;49815;51.618;0.336;2022-09-02T00:24:44;100950.16;;;17.97;47.69
63663;BME280;49815;51.618;0.336;2022-09-02T00:27:10;100946.14;;;18.18;46.73
63663;BME280;49815;51.618;0.336;2022-09-02T00:29:35;100946.40;;;18.27;46.66
63663;BME280;49815;51.618;0.336;2022-09-02T00:32:01;100944.37;;;17.97;46.99
63663;BME280;49815;51.618;0.336;2022-09-02T00:34:25;100943.07;;;17.13;48.78
63663;BME280;49815;51.618;0.336;2022-09-02T00:36:51;100936.61;;;17.55;49.48
63663;BME280;49815;51.618;0.336;2022-09-02T00:39:16;100935.74;;;17.86;49.29
63663;BME280;49815;51.618;0.336;2022-09-02T00:41:42;100934.00;;;17.99;48.59
63663;BME280;49815;51.618;0.336;2022-09-02T00:44:09;100931.56;;;17.10;49.65
63663;BME280;49815;51.618;0.336;2022-09-02T00:46:33;100930.74;;;17.32;49.89
63663;BME280;49815;51.618;0.336;2022-09-02T00:49:04;100926.01;;;17.87;49.10
63663;BME280;49815;51.618;0.336;2022-09-02T00:51:24;100922.25;;;18.22;48.01
63663;BME280;49815;51.618;0.336;2022-09-02T00:53:49;100922.93;;;17.71;48.79
63663;BME280;49815;51.618;0.336;2022-09-02T00:56:19;100919.12;;;17.75;48.94
63663;BME280;49815;51.618;0.336;2022-09-02T00:58:40;100916.19;;;17.45;48.91
63663;BME280;49815;51.618;0.336;2022-09-02T01:01:05;100910.68;;;18.19;47.82
63663;BME280;49815;51.618;0.336;2022-09-02T01:03:32;100912.72;;;17.97;47.92
63663;BME280;49815;51.618;0.336;2022-09-02T01:05:56;100912.39;;;18.06;48.90
63663;BME280;49815;51.618;0.336;2022-09-02T01:08:23;100905.53;;;18.64;47.36
63663;BME280;49815;51.618;0.336;2022-09-02T01:10:47;100903.31;;;18.39;47.58
63663;BME280;49815;51.618;0.336;2022-09-02T01:13:13;100897.60;;;18.41;47.27
63663;BME280;49815;51.618;0.336;2022-09-02T01:15:43;100893.64;;;17.89;47.64
63663;BME280;49815;51.618;0.336;2022-09-02T01:18:03;100892.96;;;16.79;50.12
63663;BME280;49815;51.618;0.336;2022-09-02T01:20:27;100888.65;;;15.92;53.47
63663;BME280;49815;51.618;0.336;2022-09-02T01:22:53;100881.88;;;15.59;55.26
63663;BME280;49815;51.618;0.336;2022-09-02T01:25:20;100880.57;;;14.11;58.98
63663;BME280;49815;51.618;0.336;2022-09-02T01:27:43;100878.12;;;14.84;57.92
63663;BME280;49815;51.618;0.336;2022-09-02T01:30:11;100875.70;;;14.42;59.12
63663;BME280;49815;51.618;0.336;2022-09-02T01:32:33;100875.86;;;13.56;60.87
63663;BME280;49815;51.618;0.336;2022-09-02T01:35:00;100873.07;;;14.07;61.09
63663;BME280;49815;51.618;0.336;2022-09-02T01:37:25;100870.33;;;14.52;59.43
63663;BME280;49815;51.618;0.336;2022-09-02T01:39:50;100868.58;;;13.86;61.27
63663;BME280;49815;51.618;0.336;2022-09-02T01:42:15;100874.31;;;13.27;62.98
63663;BME280;49815;51.618;0.336;2022-09-02T01:44:40;100863.12;;;14.19;61.14
63663;BME280;49815;51.618;0.336;2022-09-02T01:47:05;100864.79;;;13.74;62.29
63663;BME280;49815;51.618;0.336;2022-09-02T01:49:31;100859.36;;;14.53;59.34
63663;BME280;49815;51.618;0.336;2022-09-02T01:51:56;100856.87;;;14.73;59.01
63663;BME280;49815;51.618;0.336;2022-09-02T01:54:22;100852.44;;;14.76;58.85
63663;BME280;49815;51.618;0.336;2022-09-02T01:56:48;100851.19;;;14.88;59.61
63663;BME280;49815;51.618;0.336;2022-09-02T01:59:13;100852.05;;;13.46;63.15
63663;BME280;49815;51.618;0.336;2022-09-02T02:01:39;100842.80;;;14.92;59.95
63663;BME280;49815;51.618;0.336;2022-09-02T02:04:04;100839.28;;;14.75;59.29
63663;BME280;49815;51.618;0.336;2022-09-02T02:06:29;100837.39;;;14.02;60.74
63663;BME280;49815;51.618;0.336;2022-09-02T02:08:54;100837.13;;;14.40;59.87
63663;BME280;49815;51.618;0.336;2022-09-02T02:11:22;100833.19;;;14.31;60.26
63663;BME280;49815;51.618;0.336;2022-09-02T02:13:46;100834.31;;;14.38;60.19
63663;BME280;49815;51.618;0.336;2022-09-02T02:16:11;100832.14;;;14.47;60.14
63663;BME280;49815;51.618;0.336;2022-09-02T02:18:36;100827.61;;;15.46;57.93
63663;BME280;49815;51.618;0.336;2022-09-02T02:21:07;100831.59;;;14.62;59.64
63663;BME280;49815;51.618;0.336;2022-09-02T02:23:27;100827.05;;;14.42;61.36
63663;BME280;49815;51.618;0.336;2022-09-02T02:25:58;100824.37;;;14.00;61.75
63663;BME280;49815;51.618;0.336;2022-09-02T02:28:18;100826.73;;;13.58;64.26
63663;BME280;49815;51.618;0.336;2022-09-02T02:30:43;100818.95;;;15.02;59.48
63663;BME280;49815;51.618;0.336;2022-09-02T02:33:09;100816.95;;;15.18;58.96
63663;BME280;49815;51.618;0.336;2022-09-02T02:35:34;100816.29;;;15.61;57.90
63663;BME280;49815;51.618;0.336;2022-09-02T02:38:02;100818.67;;;14.28;60.84
63663;BME280;49815;51.618;0.336;2022-09-02T02:40:25;100816.84;;;14.61;60.28
63663;BME280;49815;51.618;0.336;2022-09-02T02:42:51;100811.76;;;15.25;59.01
63663;BME280;49815;51.618;0.336;2022-09-02T02:45:16;100808.29;;;15.98;56.42
63663;BME280;49815;51.618;0.336;2022-09-02T02:47:43;100806.08;;;16.00;57.30
63663;BME280;49815;51.618;0.336;2022-09-02T02:50:10;100809.43;;;14.40;59.93
63663;BME280;49815;51.618;0.336;2022-09-02T02:52:32;100811.32;;;13.86;63.80
63663;BME280;49815;51.618;0.336;2022-09-02T02:54:58;100814.58;;;13.36;64.47
63663;BME280;49815;51.618;0.336;2022-09-02T02:57:23;100810.23;;;15.49;60.01
63663;BME280;49815;51.618;0.336;2022-09-02T02:59:49;100806.09;;;15.10;59.45
63663;BME280;49815;51.618;0.336;2022-09-02T03:02:14;100805.49;;;14.59;60.77
63663;BME280;49815;51.618;0.336;2022-09-02T03:04:40;100803.25;;;14.15;61.56
63663;BME280;49815;51.618;0.336;2022-09-02T03:07:06;100801.60;;;13.72;62.75
63663;BME280;49815;51.618;0.336;2022-09-02T03:09:30;100798.29;;;15.35;59.37
63663;BME280;49815;51.618;0.336;2022-09-02T03:11:56;100800.18;;;14.69;61.42
63663;BME280;49815;51.618;0.336;2022-09-02T03:14:22;100794.22;;;14.95;60.23
63663;BME280;49815;51.618;0.336;2022-09-02T03:16:47;100791.30;;;16.19;57.92
63663;BME280;49815;51.618;0.336;2022-09-02T03:19:12;100789.29;;;15.46;57.17
63663;BME280;49815;51.618;0.336;2022-09-02T03:21:38;100787.70;;;16.56;55.48
63663;BME280;49815;51.618;0.336;2022-09-02T03:24:03;100783.69;;;15.38;56.41
63663;BME280;49815;51.618;0.336;2022-09-02T03:26:28;100783.04;;;15.16;58.69
63663;BME280;49815;51.618;0.336;2022-09-02T03:28:54;100783.41;;;15.71;59.11
63663;BME280;49815;51.618;0.336;2022-09-02T03:31:22;100786.10;;;17.12;53.87
63663;BME280;49815;51.618;0.336;2022-09-02T03:33:45;100779.88;;;17.00;53.79
63663;BME280;49815;51.618;0.336;2022-09-02T03:36:19;100781.22;;;16.87;54.30
63663;BME280;49815;51.618;0.336;2022-09-02T03:38:35;100779.05;;;17.65;51.62
63663;BME280;49815;51.618;0.336;2022-09-02T03:41:01;100782.33;;;16.69;53.61
63663;BME280;49815;51.618;0.336;2022-09-02T03:43:26;100778.87;;;15.83;56.84
63663;BME280;49815;51.618;0.336;2022-09-02T03:45:51;100777.48;;;17.00;53.91
63663;BME280;49815;51.618;0.336;2022-09-02T03:48:16;100771.92;;;17.05;53.25
63663;BME280;49815;51.618;0.336;2022-09-02T03:50:43;100773.35;;;14.56;59.94
63663;BME280;49815;51.618;0.336;2022-09-02T03:53:07;100766.99;;;16.89;54.93
63663;BME280;49815;51.618;0.336;2022-09-02T03:55:35;100767.55;;;14.88;58.77
63663;BME280;49815;51.618;0.336;2022-09-02T03:58:00;100762.09;;;15.77;58.32
63663;BME280;49815;51.618;0.336;2022-09-02T04:00:25;100763.55;;;16.86;54.50
63663;BME280;49815;51.618;0.336;2022-09-02T04:02:49;100761.27;;;15.89;56.04
63663;BME280;49815;51.618;0.336;2022-09-02T04:05:15;100757.86;;;15.41;56.95
63663;BME280;49815;51.618;0.336;2022-09-02T04:07:40;100758.61;;;16.81;54.41
63663;BME280;49815;51.618;0.336;2022-09-02T04:10:07;100754.34;;;17.20;53.90
63663;BME280;49815;51.618;0.336;2022-09-02T04:12:31;100748.10;;;17.87;52.13
63663;BME280;49815;51.618;0.336;2022-09-02T04:14:56;100743.14;;;16.71;53.69
63663;BME280;49815;51.618;0.336;2022-09-02T04:17:22;100745.50;;;16.38;54.73
63663;BME280;49815;51.618;0.336;2022-09-02T04:19:47;100741.23;;;16.24;55.23
63663;BME280;49815;51.618;0.336;2022-09-02T04:22:12;100738.49;;;16.19;55.26
63663;BME280;49815;51.618;0.336;2022-09-02T04:24:38;100731.27;;;14.58;59.95
63663;BME280;49815;51.618;0.336;2022-09-02T04:27:04;100730.73;;;13.94;62.74
63663;BME280;49815;51.618;0.336;2022-09-02T04:29:29;100727.35;;;15.38;58.71
63663;BME280;49815;51.618;0.336;2022-09-02T04:31:54;100727.30;;;16.41;56.32
63663;BME280;49815;51.618;0.336;2022-09-02T04:34:20;100732.02;;;15.16;60.06
63663;BME280;49815;51.618;0.336;2022-09-02T04:36:47;100731.90;;;16.75;55.15
63663;BME280;49815;51.618;0.336;2022-09-02T04:39:11;100730.05;;;17.36;53.40
63663;BME280;49815;51.618;0.336;2022-09-02T04:41:37;100730.96;;;16.74;54.87
63663;BME280;49815;51.618;0.336;2022-09-02T04:44:03;100721.97;;;17.47;52.92
63663;BME280;49815;51.618;0.336;2022-09-02T04:46:27;100723.27;;;17.07;54.15
63663;BME280;49815;51.618;0.336;2022-09-02T04:48:53;100724.26;;;16.90;53.86
63663;BME280;49815;51.618;0.336;2022-09-02T04:51:20;100721.04;;;16.60;54.09
63663;BME280;49815;51.618;0.336;2022-09-02T04:53:44;100719.14;;;17.02;53.57
63663;BME280;49815;51.618;0.336;2022-09-02T04:56:11;100714.34;;;17.81;51.89
63663;BME280;49815;51.618;0.336;2022-09-02T04:58:34;100712.32;;;17.38;52.76
63663;BME280;49815;51.618;0.336;2022-09-02T05:01:05;100712.91;;;17.28;53.28
63663;BME280;49815;51.618;0.336;2022-09-02T05:03:24;100710.47;;;17.50;53.06
63663;BME280;49815;51.618;0.336;2022-09-02T05:06:00;100708.65;;;16.85;54.41
63663;BME280;49815;51.618;0.336;2022-09-02T05:08:16;100709.88;;;17.47;52.25
63663;BME280;49815;51.618;0.336;2022-09-02T05:10:41;100706.24;;;17.17;52.69
63663;BME280;49815;51.618;0.336;2022-09-02T05:13:06;100707.31;;;17.83;51.32
63663;BME280;49815;51.618;0.336;2022-09-02T05:15:31;100705.92;;;18.88;49.71
63663;BME280;49815;51.618;0.336;2022-09-02T05:17:57;100707.02;;;18.50;49.99
63663;BME280;49815;51.618;0.336;2022-09-02T05:20:22;100707.85;;;18.80;49.40
63663;BME280;49815;51.618;0.336;2022-09-02T05:22:48;100711.75;;;16.77;53.01
63663;BME280;49815;51.618;0.336;2022-09-02T05:25:13;100712.46;;;17.02;53.32
63663;BME280;49815;51.618;0.336;2022-09-02T05:27:38;100711.45;;;16.91;54.31
63663;BME280;49815;51.618;0.336;2022-09-02T05:30:05;100706.08;;;17.09;53.00
63663;BME280;49815;51.618;0.336;2022-09-02T05:32:30;100709.28;;;17.38;53.03
63663;BME280;49815;51.618;0.336;2022-09-02T05:34:55;100713.52;;;15.74;56.44
63663;BME280;49815;51.618;0.336;2022-09-02T05:37:20;100714.73;;;15.24;58.55
63663;BME280;49815;51.618;0.336;2022-09-02T05:39:45;100718.84;;;14.88;59.58
63663;BME280;49815;51.618;0.336;2022-09-02T05:42:10;100720.73;;;14.73;61.32
63663;BME280;49815;51.618;0.336;2022-09-02T05:44:36;100714.18;;;15.00;58.22
63663;BME280;49815;51.618;0.336;2022-09-02T05:47:01;100715.38;;;16.14;57.03
63663;BME280;49815;51.618;0.336;2022-09-02T05:49:26;100712.32;;;16.17;56.77
63663;BME280;49815;51.618;0.336;2022-09-02T05:51:53;100712.21;;;16.55;56.13
63663;BME280;49815;51.618;0.336;2022-09-02T05:54:20;100708.99;;;17.49;53.32
63663;BME280;49815;51.618;0.336;2022-09-02T05:56:44;100714.91;;;16.48;55.12
63663;BME280;49815;51.618;0.336;2022-09-02T05:59:08;100713.21;;;16.62;54.79
63663;BME280;49815;51.618;0.336;2022-09-02T06:01:34;100714.50;;;16.29;55.18
63663;BME280;49815;51.618;0.336;2022-09-02T06:04:01;100714.41;;;15.18;58.73
63663;BME280;49815;51.618;0.336;2022-09-02T06:06:24;100714.30;;;16.07;57.10
63663;BME280;49815;51.618;0.336;2022-09-02T06:08:50;100711.90;;;17.29;54.43
63663;BME280;49815;51.618;0.336;2022-09-02T06:11:16;100710.99;;;17.07;53.37
63663;BME280;49815;51.618;0.336;2022-09-02T06:13:41;100708.97;;;18.52;51.16
63663;BME280;49815;51.618;0.336;2022-09-02T06:16:07;100705.99;;;17.28;52.39
63663;BME280;49815;51.618;0.336;2022-09-02T06:18:31;100710.26;;;16.79;54.82
63663;BME280;49815;51.618;0.336;2022-09-02T06:20:56;100704.72;;;17.89;52.23
63663;BME280;49815;51.618;0.336;2022-09-02T06:23:21;100700.57;;;18.81;49.89
63663;BME280;49815;51.618;0.336;2022-09-02T06:25:49;100710.04;;;15.81;55.92
63663;BME280;49815;51.618;0.336;2022-09-02T06:28:13;100701.29;;;17.84;52.53
63663;BME280;49815;51.618;0.336;2022-09-02T06:30:38;100697.69;;;18.30;50.96
63663;BME280;49815;51.618;0.336;2022-09-02T06:33:03;100693.90;;;17.54;51.40
63663;BME280;49815;51.618;0.336;2022-09-02T06:35:29;100687.36;;;18.96;48.79
63663;BME280;49815;51.618;0.336;2022-09-02T06:37:53;100679.99;;;21.34;44.43
63663;BME280;49815;51.618;0.336;2022-09-02T06:40:18;100679.70;;;20.86;43.53
63663;BME280;49815;51.618;0.336;2022-09-02T06:42:44;100672.79;;;22.60;40.83
63663;BME280;49815;51.618;0.336;2022-09-02T06:45:09;100668.54;;;23.49;38.76
63663;BME280;49815;51.618;0.336;2022-09-02T06:47:34;100667.82;;;24.50;36.77
63663;BME280;49815;51.618;0.336;2022-09-02T06:50:01;100667.00;;;23.34;38.14
63663;BME280;49815;51.618;0.336;2022-09-02T06:52:24;100664.30;;;23.52;38.59
63663;BME280;49815;51.618;0.336;2022-09-02T06:54:49;100665.61;;;23.84;37.88
63663;BME280;49815;51.618;0.336;2022-09-02T06:57:14;100665.59;;;22.54;39.74
63663;BME280;49815;51.618;0.336;2022-09-02T06:59:39;100665.31;;;23.07;39.19
63663;BME280;49815;51.618;0.336;2022-09-02T07:02:04;100657.18;;;21.79;40.25
63663;BME280;49815;51.618;0.336;2022-09-02T07:04:29;100659.23;;;22.51;40.78
63663;BME280;49815;51.618;0.336;2022-09-02T07:06:55;100655.13;;;22.43;40.47
63663;BME280;49815;51.618;0.336;2022-09-02T07:09:21;100656.30;;;21.88;41.92
63663;BME280;49815;51.618;0.336;2022-09-02T07:11:45;100653.31;;;21.49;42.05
63663;BME280;49815;51.618;0.336;2022-09-02T07:14:09;100652.99;;;22.68;40.63
63663;BME280;49815;51.618;0.336;2022-09-02T07:16:40;100652.98;;;22.62;40.01
63663;BME280;49815;51.618;0.336;2022-09-02T07:19:01;100650.57;;;21.72;41.75
63663;BME280;49815;51.618;0.336;2022-09-02T07:21:25;100647.96;;;22.53;40.45
63663;BME280;49815;51.618;0.336;2022-09-02T07:23:50;100647.82;;;21.24;43.42
63663;BME280;49815;51.618;0.336;2022-09-02T07:26:16;100649.51;;;20.16;44.96
63663;BME280;49815;51.618;0.336;2022-09-02T07:28:41;100649.42;;;19.96;46.57
63663;BME280;49815;51.618;0.336;2022-09-02T07:31:07;100647.81;;;20.56;45.57
63663;BME280;49815;51.618;0.336;2022-09-02T07:33:32;100643.38;;;19.82;46.80
63663;BME280;49815;51.618;0.336;2022-09-02T07:35:57;100643.47;;;19.02;48.40
63663;BME280;49815;51.618;0.336;2022-09-02T07:38:22;100641.82;;;20.57;44.95
63663;BME280;49815;51.618;0.336;2022-09-02T07:40:47;100641.81;;;20.76;44.44
63663;BME280;49815;51.618;0.336;2022-09-02T07:43:12;100643.54;;;21.29;43.68
63663;BME280;49815;51.618;0.336;2022-09-02T07:45:38;100644.07;;;20.93;43.92
63663;BME280;49815;51.618;0.336;2022-09-02T07:48:04;100645.82;;;21.23;43.63
63663;BME280;49815;51.618;0.336;2022-09-02T07:50:28;100636.85;;;21.85;41.83
63663;BME280;49815;51.618;0.336;2022-09-02T07:52:53;100634.11;;;21.61;42.53
63663;BME280;49815;51.618;0.336;2022-09-02T07:55:19;100640.40;;;19.83;44.96
63663;BME280;49815;51.618;0.336;2022-09-02T07:57:43;100637.07;;;20.01;45.89
63663;BME280;49815;51.618;0.336;2022-09-02T08:00:10;100626.50;;;22.10;43.14
63663;BME280;49815;51.618;0.336;2022-09-02T08:02:34;100627.22;;;22.52;41.34
63663;BME280;49815;51.618;0.336;2022-09-02T08:04:58;100629.88;;;20.99;43.28
63663;BME280;49815;51.618;0.336;2022-09-02T08:07:23;100624.89;;;22.20;41.38
63663;BME280;49815;51.618;0.336;2022-09-02T08:09:49;100624.84;;;22.78;39.72
63663;BME280;49815;51.618;0.336;2022-09-02T08:12:14;100623.80;;;21.41;41.01
63663;BME280;49815;51.618;0.336;2022-09-02T08:14:39;100622.64;;;21.26;41.80
63663;BME280;49815;51.618;0.336;2022-09-02T08:17:04;100623.06;;;22.10;40.91
63663;BME280;49815;51.618;0.336;2022-09-02T08:19:30;100623.11;;;21.35;42.25
63663;BME280;49815;51.618;0.336;2022-09-02T08:21:55;100625.39;;;21.09;43.33
63663;BME280;49815;51.618;0.336;2022-09-02T08:24:20;100624.48;;;20.76;43.92
63663;BME280;49815;51.618;0.336;2022-09-02T08:26:45;100621.71;;;21.79;42.98
63663;BME280;49815;51.618;0.336;2022-09-02T08:29:10;100618.91;;;22.37;40.99
63663;BME280;49815;51.618;0.336;2022-09-02T08:31:36;100618.52;;;22.39;40.91
63663;BME280;49815;51.618;0.336;2022-09-02T08:34:02;100617.51;;;22.58;40.36
63663;BME280;49815;51.618;0.336;2022-09-02T08:36:27;100622.52;;;20.89;43.98
63663;BME280;49815;51.618;0.336;2022-09-02T08:38:52;100612.33;;;22.55;41.80
63663;BME280;49815;51.618;0.336;2022-09-02T08:41:20;100612.00;;;22.10;40.70
63663;BME280;49815;51.618;0.336;2022-09-02T08:43:43;100615.42;;;22.67;40.29
63663;BME280;49815;51.618;0.336;2022-09-02T08:46:09;100611.76;;;22.47;40.01
63663;BME280;49815;51.618;0.336;2022-09-02T08:48:36;100614.09;;;21.60;41.63
63663;BME280;49815;51.618;0.336;2022-09-02T08:51:03;100612.28;;;21.25;42.58
63663;BME280;49815;51.618;0.336;2022-09-02T08:53:29;100617.34;;;21.03;43.93
63663;BME280;49815;51.618;0.336;2022-09-02T08:55:51;100613.36;;;21.12;43.50
63663;BME280;49815;51.618;0.336;2022-09-02T08:58:16;100614.25;;;21.21;42.53
63663;BME280;49815;51.618;0.336;2022-09-02T09:00:39;100609.58;;;22.30;40.72
63663;BME280;49815;51.618;0.336;2022-09-02T09:03:12;100603.38;;;23.12;38.98
63663;BME280;49815;51.618;0.336;2022-09-02T09:05:36;100601.90;;;22.04;40.82
63663;BME280;49815;51.618;0.336;2022-09-02T09:08:02;100601.92;;;22.92;39.01
63663;BME280;49815;51.618;0.336;2022-09-02T09:10:20;100606.03;;;20.87;43.09
63663;BME280;49815;51.618;0.336;2022-09-02T09:12:57;100601.91;;;22.71;39.69
63663;BME280;49815;51.618;0.336;2022-09-02T09:15:12;100600.10;;;21.77;39.67
63663;BME280;49815;51.618;0.336;2022-09-02T09:17:40;100600.13;;;22.19;38.80
63663;BME280;49815;51.618;0.336;2022-09-02T09:20:02;100605.33;;;21.16;41.41
63663;BME280;49815;51.618;0.336;2022-09-02T09:22:27;100598.94;;;22.63;38.94
63663;BME280;49815;51.618;0.336;2022-09-02T09:24:49;100596.98;;;23.40;36.39
63663;BME280;49815;51.618;0.336;2022-09-02T09:27:15;100606.16;;;19.79;40.23
63663;BME280;49815;51.618;0.336;2022-09-02T09:29:39;100604.65;;;19.98;42.05
63663;BME280;49815;51.618;0.336;2022-09-02T09:32:10;100592.36;;;21.83;37.59
63663;BME280;49815;51.618;0.336;2022-09-02T09:36:55;100587.02;;;23.55;34.38
63663;BME280;49815;51.618;0.336;2022-09-02T09:39:22;100589.79;;;22.88;35.18
63663;BME280;49815;51.618;0.336;2022-09-02T09:41:45;100590.75;;;24.10;34.18
63663;BME280;49815;51.618;0.336;2022-09-02T09:44:10;100587.84;;;23.36;34.84
63663;BME280;49815;51.618;0.336;2022-09-02T09:46:35;100588.42;;;24.46;33.68
63663;BME280;49815;51.618;0.336;2022-09-02T09:49:02;100585.34;;;25.37;31.15
63663;BME280;49815;51.618;0.336;2022-09-02T09:51:25;100595.34;;;22.40;34.85
63663;BME280;49815;51.618;0.336;2022-09-02T09:53:50;100591.77;;;22.59;34.76
63663;BME280;49815;51.618;0.336;2022-09-02T09:56:22;100583.71;;;22.78;35.09
63663;BME280;49815;51.618;0.336;2022-09-02T09:58:43;100580.30;;;23.47;33.78
63663;BME280;49815;51.618;0.336;2022-09-02T10:01:10;100578.34;;;22.79;34.82
63663;BME280;49815;51.618;0.336;2022-09-02T10:03:30;100577.94;;;21.23;37.84
63663;BME280;49815;51.618;0.336;2022-09-02T10:05:57;100570.07;;;23.84;34.15
63663;BME280;49815;51.618;0.336;2022-09-02T10:08:23;100569.75;;;23.78;34.79
63663;BME280;49815;51.618;0.336;2022-09-02T10:10:55;100568.33;;;25.83;31.71
63663;BME280;49815;51.618;0.336;2022-09-02T10:13:20;100562.79;;;25.33;31.91
63663;BME280;49815;51.618;0.336;2022-09-02T10:15:47;100557.26;;;26.25;29.87
63663;BME280;49815;51.618;0.336;2022-09-02T10:18:17;100560.50;;;25.34;30.96
63663;BME280;49815;51.618;0.336;2022-09-02T10:20:36;100555.87;;;27.08;29.54
63663;BME280;49815;51.618;0.336;2022-09-02T10:23:03;100552.51;;;27.76;28.84
63663;BME280;49815;51.618;0.336;2022-09-02T10:25:22;100549.61;;;28.05;28.19
63663;BME280;49815;51.618;0.336;2022-09-02T10:27:50;100552.14;;;25.77;30.47
63663;BME280;49815;51.618;0.336;2022-09-02T10:30:13;100550.76;;;25.91;30.36
63663;BME280;49815;51.618;0.336;2022-09-02T10:32:41;100548.25;;;26.36;29.75
63663;BME280;49815;51.618;0.336;2022-09-02T10:35:05;100544.66;;;27.17;29.38
63663;BME280;49815;51.618;0.336;2022-09-02T10:37:23;100539.83;;;27.22;29.16
63663;BME280;49815;51.618;0.336;2022-09-02T10:40:02;100547.67;;;23.26;34.23
63663;BME280;49815;51.618;0.336;2022-09-02T10:42:18;100538.94;;;24.80;32.92
63663;BME280;49815;51.618;0.336;2022-09-02T10:44:43;100531.51;;;26.99;30.09
63663;BME280;49815;51.618;0.336;2022-09-02T10:47:09;100525.85;;;27.92;29.54
63663;BME280;49815;51.618;0.336;2022-09-02T10:49:46;100520.34;;;28.04;28.69
63663;BME280;49815;51.618;0.336;2022-09-02T10:51:58;100519.71;;;27.57;29.30
63663;BME280;49815;51.618;0.336;2022-09-02T10:54:29;100513.87;;;27.36;28.87
63663;BME280;49815;51.618;0.336;2022-09-02T10:56:48;100514.79;;;27.21;29.45
63663;BME280;49815;51.618;0.336;2022-09-02T10:59:12;100519.47;;;27.26;28.48
63663;BME280;49815;51.618;0.336;2022-09-02T11:01:40;100520.91;;;28.10;28.11
63663;BME280;49815;51.618;0.336;2022-09-02T11:04:08;100521.81;;;27.98;27.73
63663;BME280;49815;51.618;0.336;2022-09-02T11:06:29;100524.94;;;28.40;27.47
63663;BME280;49815;51.618;0.336;2022-09-02T11:08:55;100521.86;;;28.12;26.96
63663;BME280;49815;51.618;0.336;2022-09-02T11:11:21;100517.52;;;28.71;27.09
63663;BME280;49815;51.618;0.336;2022-09-02T11:13:52;100515.76;;;29.01;27.14
63663;BME280;49815;51.618;0.336;2022-09-02T11:16:15;100507.00;;;29.48;26.82
63663;BME280;49815;51.618;0.336;2022-09-02T11:18:40;100500.32;;;30.16;26.01
63663;BME280;49815;51.618;0.336;2022-09-02T11:21:07;100508.24;;;29.02;26.45
63663;BME280;49815;51.618;0.336;2022-09-02T11:23:33;100502.92;;;28.52;26.62
63663;BME280;49815;51.618;0.336;2022-09-02T11:25:59;100497.20;;;28.37;26.86
63663;BME280;49815;51.618;0.336;2022-09-02T11:28:29;100495.93;;;29.09;26.64
63663;BME280;49815;51.618;0.336;2022-09-02T11:30:48;100495.69;;;28.47;27.50
63663;BME280;49815;51.618;0.336;2022-09-02T11:33:16;100495.38;;;28.12;27.63
63663;BME280;49815;51.618;0.336;2022-09-02T11:35:37;100494.14;;;28.27;27.76
63663;BME280;49815;51.618;0.336;2022-09-02T11:38:05;100491.98;;;28.53;27.96
63663;BME280;49815;51.618;0.336;2022-09-02T11:40:32;100483.57;;;28.62;27.27
63663;BME280;49815;51.618;0.336;2022-09-02T11:43:03;100480.73;;;28.80;27.31
63663;BME280;49815;51.618;0.336;2022-09-02T11:45:30;100481.47;;;28.75;27.40
63663;BME280;49815;51.618;0.336;2022-09-02T11:48:09;100477.79;;;28.00;27.35
63663;BME280;49815;51.618;0.336;2022-09-02T11:52:44;100470.87;;;27.18;28.27
63663;BME280;49815;51.618;0.336;2022-09-02T11:55:07;100471.00;;;26.61;28.33
63663;BME280;49815;51.618;0.336;2022-09-02T11:57:26;100467.92;;;27.03;28.09
63663;BME280;49815;51.618;0.336;2022-09-02T12:00:05;100466.92;;;27.79;26.40
63663;BME280;49815;51.618;0.336;2022-09-02T12:04:41;100460.80;;;28.21;27.80
63663;BME280;49815;51.618;0.336;2022-09-02T12:07:20;100459.78;;;29.40;26.58
63663;BME280;49815;51.618;0.336;2022-09-02T12:09:42;100466.52;;;28.95;26.53
63663;BME280;49815;51.618;0.336;2022-09-02T12:11:59;100460.91;;;28.01;27.26
63663;BME280;49815;51.618;0.336;2022-09-02T12:16:59;100455.06;;;28.58;26.51
63663;BME280;49815;51.618;0.336;2022-09-02T12:19:24;100456.06;;;28.57;26.07
63663;BME280;49815;51.618;0.336;2022-09-02T12:24:14;100457.25;;;28.33;27.54
63663;BME280;49815;51.618;0.336;2022-09-02T12:29:10;100454.43;;;27.19;28.58
63663;BME280;49815;51.618;0.336;2022-09-02T12:31:35;100455.97;;;26.70;28.87
63663;BME280;49815;51.618;0.336;2022-09-02T12:33:50;100451.96;;;27.24;29.30
63663;BME280;49815;51.618;0.336;2022-09-02T12:38:41;100446.86;;;27.67;29.28
63663;BME280;49815;51.618;0.336;2022-09-02T12:41:21;100452.54;;;27.81;28.40
63663;BME280;49815;51.618;0.336;2022-09-02T12:43:34;100447.65;;;27.85;28.54
63663;BME280;49815;51.618;0.336;2022-09-02T12:46:03;100447.15;;;27.89;28.87
63663;BME280;49815;51.618;0.336;2022-09-02T12:48:26;100443.41;;;27.73;28.46
63663;BME280;49815;51.618;0.336;2022-09-02T12:50:53;100436.34;;;28.21;28.03
63663;BME280;49815;51.618;0.336;2022-09-02T12:53:24;100436.48;;;28.08;28.71
63663;BME280;49815;51.618;0.336;2022-09-02T12:55:37;100434.95;;;27.58;28.21